Latest Weather Observations for Bougainville Reef

IDQ60801

Issued at 8:52 pm EST Sunday 26 June 2022 (issued every 10 minutes, with the page automatically refreshed every 10 minutes)

About weather observations | Map of weather stations | Latest weather observations for QLD | Other Formats
Station Details ID: 200840 Name: BOUGAINVILLE REEF Lat: -15.49 Lon: 147.12 Height: 0.0 m
Data from the previous 72 hours. | See also: Recent months for locations in Queensland
Date/Time
EST
Temp
°C
App
Temp
°C
Dew
Point
°C
Rel
Hum
%
Delta-T
°C
Wind Press
QNH
hPa
Press
MSL
hPa
Rain since
9am
mm
Dir  Spd
km/h
Gust
km/h
Spd
kts
Gust
kts
26/08:30pm 25.4 - - - - SE 26 32 14 17 1013.8 1013.7 -
26/08:00pm 25.3 - - - - SE 26 30 14 16 1013.7 1013.6 -
26/07:30pm 25.2 - - - - SE 26 33 14 18 1013.2 1013.1 -
26/07:00pm 25.2 - - - - SE 26 30 14 16 1013.1 1013.0 -
26/06:30pm 25.5 - - - - SE 28 32 15 17 1012.6 1012.5 -
26/06:00pm 25.9 - - - - SE 28 32 15 17 1012.3 1012.2 -
26/05:30pm 25.9 - - - - SE 26 32 14 17 1012.2 1012.1 -
26/05:00pm 25.6 - - - - SE 28 32 15 17 1011.8 1011.7 -
26/04:30pm 26.0 - - - - SE 26 30 14 16 1011.6 1011.5 -
26/04:00pm 26.0 - - - - SE 28 32 15 17 1011.4 1011.3 -
26/03:30pm 26.0 - - - - SE 26 32 14 17 1011.3 1011.2 -
26/03:00pm 25.8 - - - - SE 30 33 16 18 1011.4 1011.3 -
26/02:30pm 25.7 - - - - SE 28 33 15 18 1011.4 1011.3 -
26/02:00pm 25.8 - - - - SE 28 32 15 17 1011.9 1011.8 -
26/01:30pm 25.7 - - - - SE 28 32 15 17 1012.3 1012.2 -
26/01:00pm 25.9 - - - - SE 30 33 16 18 1012.3 1012.2 -
26/12:30pm 25.8 - - - - SE 30 33 16 18 1012.8 1012.7 -
26/12:00pm 26.1 - - - - SE 30 35 16 19 1013.3 1013.2 -
26/11:30am 25.6 - - - - SE 32 37 17 20 1013.7 1013.6 -
26/11:00am 25.4 - - - - SE 28 33 15 18 1014.1 1014.0 -
26/10:30am 24.8 - - - - SE 28 33 15 18 1014.2 1014.1 -
26/10:00am 25.7 - - - - SE 30 35 16 19 1014.2 1014.1 -
26/09:30am 25.7 - - - - SE 30 35 16 19 1014.1 1014.0 -
26/09:00am 25.8 - - - - SE 30 35 16 19 1014.1 1014.0 -
26/08:30am 25.6 - - - - SE 32 39 17 21 1013.9 1013.8 -
26/08:00am 24.8 - - - - SE 30 35 16 19 1013.6 1013.5 -
26/07:30am 25.3 - - - - SE 28 33 15 18 1013.4 1013.3 -
26/07:00am 25.4 - - - - SE 32 35 17 19 1013.0 1012.9 -
26/06:30am 25.3 - - - - SE 30 35 16 19 1012.7 1012.6 -
26/06:00am 25.6 - - - - SE 28 33 15 18 1012.4 1012.3 -
26/05:30am 25.6 - - - - SE 28 32 15 17 1012.2 1012.1 -
26/05:00am 25.5 - - - - SE 28 35 15 19 1012.1 1012.0 -
26/04:00am 25.0 - - - - SE 28 32 15 17 1012.1 1012.0 -
26/02:30am 24.9 - - - - - - - - - 1012.4 1012.3 -
26/02:00am 25.1 - - - - SE 26 - 14 - - 1012.5 -
26/01:30am 24.9 - - - - SE 28 32 15 17 1012.7 1012.6 -
26/01:00am 25.3 - - - - SE 28 33 15 18 1012.9 1012.8 -
26/12:30am 24.9 - - - - SE 28 35 15 19 1013.4 1013.3 -
26/12:00am 25.1 - - - - SE 30 33 16 18 1013.3 1013.2 -
 
Date/Time
EST
Temp
°C
App
Temp
°C
Dew
Point
°C
Rel
Hum
%
Delta-T
°C
Wind Press
QNH
hPa
Press
MSL
hPa
Rain since
9am
mm
Dir  Spd
km/h
Gust
km/h
Spd
kts
Gust
kts
25/11:30pm 25.0 - - - - SE 30 35 16 19 1013.7 1013.6 -
25/11:00pm 24.4 - - - - SE 30 35 16 19 1013.9 1013.8 -
25/10:30pm 24.7 - - - - SE 28 32 15 17 1013.9 1013.8 -
25/10:00pm 24.8 - - - - SE 28 - 15 - 1014.0 1013.9 -
25/09:30pm 25.6 - - - - SE 28 33 15 18 1014.0 1013.9 -
25/09:00pm 25.3 - - - - SE 28 33 15 18 1014.0 1013.9 -
25/08:30pm 24.6 - - - - SE 30 35 16 19 1013.8 1013.7 -
25/08:00pm 25.4 - - - - SE 28 33 15 18 1013.6 1013.5 -
25/07:30pm 25.0 - - - - ESE 26 32 14 17 1013.6 1013.5 -
25/07:00pm 25.6 - - - - SE 26 32 14 17 1013.2 1013.1 -
25/06:30pm 25.8 - - - - SE 28 33 15 18 1013.0 1012.9 -
25/06:00pm 25.7 - - - - SE 28 32 15 17 1012.7 1012.6 -
25/05:30pm 25.8 - - - - SE 26 32 14 17 1012.6 1012.5 -
25/05:00pm 25.7 - - - - SE 26 30 14 16 1012.5 1012.4 -
25/04:30pm 25.6 - - - - SE 26 32 14 17 1012.2 1012.1 -
25/04:00pm 25.6 - - - - SE 26 32 14 17 1011.9 1011.8 -
25/03:30pm 25.3 - - - - SE 26 30 14 16 1011.8 1011.7 -
25/03:00pm 24.3 - - - - SE 22 30 12 16 1011.9 1011.8 -
25/02:30pm 25.6 - - - - SE 26 28 14 15 1012.1 1012.0 -
25/02:00pm 24.8 - - - - SE 24 28 13 15 1012.2 1012.1 -
25/01:30pm 25.4 - - - - SE 24 28 13 15 1012.3 1012.2 -
25/01:00pm 25.5 - - - - SE 24 28 13 15 1012.6 1012.5 -
25/12:30pm 25.6 - - - - SE 22 28 12 15 1013.0 1012.9 -
25/12:00pm 25.8 - - - - SE 22 26 12 14 1013.7 1013.6 -
25/11:30am 25.9 - - - - SE 22 26 12 14 1014.0 1013.9 -
25/11:00am 25.2 - - - - SE 20 26 11 14 1014.4 1014.3 -
25/10:30am 25.4 - - - - SE 24 28 13 15 1014.3 1014.2 -
25/10:00am 25.8 - - - - SE 24 28 13 15 1014.4 1014.3 -
25/09:30am 25.7 - - - - SE 24 28 13 15 1014.5 1014.4 -
25/09:00am 25.4 - - - - SE 24 28 13 15 1014.2 1014.1 -
25/08:30am 25.3 - - - - SE 24 28 13 15 1014.1 1014.0 -
25/08:00am 25.2 - - - - SE 24 30 13 16 1014.0 1013.9 -
25/07:30am 24.7 - - - - SE 24 30 13 16 1013.9 1013.8 -
25/07:00am 24.9 - - - - SE 22 28 12 15 1013.6 1013.5 -
25/06:30am 24.9 - - - - SE 24 28 13 15 1013.2 1013.1 -
25/06:00am 24.7 - - - - SE 22 26 12 14 1012.9 1012.8 -
25/05:30am 24.4 - - - - SE 24 28 13 15 1012.5 1012.4 -
25/05:00am 24.9 - - - - SE 24 28 13 15 1012.5 1012.4 -
25/04:30am 24.0 - - - - SE 22 26 12 14 1012.5 1012.4 -
25/04:00am 24.5 - - - - SE 22 28 12 15 1012.6 1012.5 -
25/03:30am 23.9 - - - - SE 24 30 13 16 1012.6 1012.5 -
25/03:00am 24.7 - - - - SE 24 30 13 16 1012.7 1012.6 -
25/02:30am 25.0 - - - - SE 24 28 13 15 1013.0 1012.9 -
25/02:00am 25.2 - - - - SE 24 28 13 15 1013.4 1013.3 -
25/01:30am 25.1 - - - - SE 24 28 13 15 1013.6 1013.5 -
25/01:00am 25.3 - - - - SE 26 30 14 16 1013.9 1013.8 -
25/12:30am 25.3 - - - - SE 26 30 14 16 1014.1 1014.0 -
25/12:00am 25.2 - - - - SE 26 30 14 16 1014.2 1014.1 -
 
Date/Time
EST
Temp
°C
App
Temp
°C
Dew
Point
°C
Rel
Hum
%
Delta-T
°C
Wind Press
QNH
hPa
Press
MSL
hPa
Rain since
9am
mm
Dir  Spd
km/h
Gust
km/h
Spd
kts
Gust
kts
24/11:30pm 25.4 - - - - SE 26 32 14 17 1014.4 1014.3 -
24/11:00pm 25.3 - - - - ESE 26 30 14 16 1014.7 1014.6 -
24/10:30pm 25.3 - - - - ESE 26 30 14 16 1015.0 1014.9 -
24/10:00pm 25.5 - - - - ESE 24 28 13 15 1015.3 1015.2 -
24/09:30pm 25.3 - - - - ESE 26 30 14 16 1015.4 1015.3 -
24/09:00pm 25.3 - - - - ESE 26 32 14 17 1015.3 1015.2 -
24/08:30pm 25.7 - - - - ESE 26 30 14 16 1015.0 1014.9 -
24/08:00pm 25.2 - - - - ESE 26 30 14 16 1014.6 1014.5 -
24/07:30pm 25.5 - - - - ESE 26 30 14 16 1014.6 1014.5 -
24/07:00pm 24.1 - - - - SE 24 28 13 15 1014.5 1014.4 -
24/06:30pm 24.0 - - - - SE 24 30 13 16 1014.2 1014.1 -
24/06:00pm 24.5 - - - - SE 26 32 14 17 1013.9 1013.8 -
24/05:30pm 24.2 - - - - SSE 26 32 14 17 1013.9 1013.8 -
24/05:00pm 23.9 - - - - SSE 26 32 14 17 1014.0 1013.9 -
24/04:30pm 23.8 - - - - SE 28 32 15 17 1013.8 1013.7 -
24/04:00pm 25.2 - - - - SE 24 30 13 16 1013.6 1013.5 -
24/03:30pm 25.1 - - - - SE 24 30 13 16 1013.5 1013.4 -
24/03:00pm 25.1 - - - - SE 26 30 14 16 1013.4 1013.3 -
24/02:30pm 25.1 - - - - SE 24 30 13 16 1013.3 1013.2 -
24/02:00pm 25.1 - - - - SE 24 30 13 16 1013.6 1013.5 -
24/01:30pm 25.2 - - - - SE 24 30 13 16 1013.9 1013.8 -
24/01:00pm 24.9 - - - - SE 26 30 14 16 1014.1 1014.0 -
24/12:30pm 25.0 - - - - SE 26 28 14 15 1014.4 1014.3 -
24/12:00pm 25.0 - - - - SE 24 30 13 16 1014.7 1014.6 -
24/11:30am 25.0 - - - - SE 26 28 14 15 1015.0 1014.9 -
24/11:00am 25.1 - - - - SE 26 30 14 16 1015.3 1015.2 -
24/10:30am 25.0 - - - - SE 24 30 13 16 1015.5 1015.4 -
24/10:00am 25.0 - - - - SE 26 30 14 16 1015.7 1015.6 -
24/09:30am 25.1 - - - - SE 26 32 14 17 1015.7 1015.6 -
24/09:00am 24.9 - - - - SE 28 32 15 17 1015.6 1015.5 -
24/08:30am 25.1 - - - - SE 26 30 14 16 1015.4 1015.3 -
24/08:00am 25.1 - - - - SE 26 32 14 17 1015.2 1015.1 -
24/07:30am 25.0 - - - - SE 26 30 14 16 1015.0 1014.9 -
24/07:00am 24.8 - - - - SE 24 30 13 16 1014.8 1014.7 -
24/06:30am 24.7 - - - - SE 24 30 13 16 1014.8 1014.7 -
24/06:00am 24.8 - - - - SE 26 30 14 16 1014.5 1014.4 -
24/05:30am 24.7 - - - - SE 26 32 14 17 1014.3 1014.2 -
24/05:00am 25.0 - - - - SE 26 32 14 17 1014.0 1013.9 -
24/04:30am 24.9 - - - - SE 26 30 14 16 1014.2 1014.1 -
24/04:00am 24.8 - - - - SE 26 32 14 17 1014.0 1013.9 -
24/03:30am 24.9 - - - - SE 24 30 13 16 1014.0 1013.9 -
24/03:00am 24.9 - - - - SE 24 30 13 16 1014.4 1014.3 -
24/02:30am 25.1 - - - - SE 26 32 14 17 1014.7 1014.6 -
24/02:00am 25.1 - - - - SE 24 28 13 15 1014.9 1014.8 -
24/01:30am 25.0 - - - - SE 24 28 13 15 1015.1 1015.0 -
24/01:00am 25.0 - - - - SE 24 28 13 15 1015.2 1015.1 -
24/12:30am 25.2 - - - - SE 24 28 13 15 1015.2 1015.1 -
24/12:00am 25.2 - - - - SE 24 30 13 16 1015.5 1015.4 -
 
Date/Time
EST
Temp
°C
App
Temp
°C
Dew
Point
°C
Rel
Hum
%
Delta-T
°C
Wind Press
QNH
hPa
Press
MSL
hPa
Rain since
9am
mm
Dir  Spd
km/h
Gust
km/h
Spd
kts
Gust
kts
23/11:30pm 25.1 - - - - SE 26 30 14 16 1015.7 1015.6 -
23/11:00pm 25.4 - - - - SE 26 32 14 17 1015.8 1015.7 -
23/10:30pm 25.1 - - - - SE 26 30 14 16 1016.0 1015.9 -
23/10:00pm 25.2 - - - - SE 26 30 14 16 1016.0 1015.9 -
23/09:30pm 25.0 - - - - SE 24 32 13 17 1016.1 1016.0 -
23/09:00pm 25.2 - - - - SE 26 32 14 17 1016.1 1016.0 -

Other formats

Comma delimited format used in spreadsheet applications
http://www.bom.gov.au/fwo/IDQ60801/IDQ60801.95288.axf

JavaScript Object Notation format (JSON) in row-major order
http://www.bom.gov.au/fwo/IDQ60801/IDQ60801.95288.json

Data quality

Most of these data are generated automatically and are frequently updated. Quality checks on data are not normally performed. It is possible for incorrect values to appear. Refer to information at About Latest Weather Observations and please check the disclaimer before using these data.